createdAt,value
2022-11-15T00:01:06.594Z,1
2022-11-15T00:03:07.138Z,1
2022-11-15T00:05:13.960Z,1
2022-11-15T00:07:06.439Z,1
2022-11-15T00:09:07.029Z,1
2022-11-15T00:11:07.021Z,1
2022-11-15T00:13:13.786Z,1
2022-11-15T00:15:13.381Z,1
2022-11-15T00:17:06.238Z,1
2022-11-15T00:19:06.361Z,1
2022-11-15T00:21:06.206Z,1
2022-11-15T00:23:12.836Z,1
2022-11-15T00:25:06.295Z,1
2022-11-15T00:27:08.136Z,1
2022-11-15T00:29:06.962Z,1
2022-11-15T00:31:07.654Z,1
2022-11-15T00:33:06.906Z,1
2022-11-15T00:35:14.251Z,1
2022-11-15T00:37:13.830Z,1
2022-11-15T00:39:06.966Z,1
2022-11-15T00:41:09.257Z,1
2022-11-15T00:43:06.158Z,1
2022-11-15T00:45:06.145Z,1
2022-11-15T00:47:06.403Z,1
2022-11-15T00:49:07.297Z,1
2022-11-15T00:51:17.021Z,1
2022-11-15T00:53:14.208Z,1
2022-11-15T00:55:06.371Z,1
2022-11-15T00:57:06.183Z,1
2022-11-15T00:59:07.608Z,1
2022-11-15T01:01:06.367Z,1
2022-11-15T01:03:12.284Z,1
2022-11-15T01:05:06.202Z,1
2022-11-15T01:07:14.271Z,1
2022-11-15T01:09:06.095Z,1
2022-11-15T01:11:11.921Z,1
2022-11-15T01:13:06.848Z,1
2022-11-15T01:15:06.198Z,1
2022-11-15T01:17:20.921Z,1
2022-11-15T01:19:06.537Z,1
2022-11-15T01:21:12.955Z,1
2022-11-15T01:23:06.310Z,1
2022-11-15T01:25:08.529Z,1
2022-11-15T01:27:06.395Z,1
2022-11-15T01:29:06.421Z,1
2022-11-15T01:31:06.278Z,1
2022-11-15T01:35:09.849Z,1
2022-11-15T01:37:07.006Z,1
2022-11-15T01:39:06.305Z,1
2022-11-15T01:43:06.224Z,1
2022-11-15T01:47:10.637Z,1
2022-11-15T01:49:07.021Z,1
2022-11-15T01:51:07.604Z,1
2022-11-15T01:53:17.460Z,1
2022-11-15T01:55:06.194Z,1
2022-11-15T01:57:06.083Z,1
2022-11-15T01:59:06.251Z,1
2022-11-15T02:01:22.538Z,1
2022-11-15T02:03:06.360Z,1
2022-11-15T02:05:06.238Z,1
2022-11-15T02:07:07.091Z,1
2022-11-15T02:09:06.071Z,1
2022-11-15T02:11:06.124Z,1
2022-11-15T02:13:06.417Z,1
2022-11-15T02:15:06.195Z,1
2022-11-15T02:17:13.999Z,1
2022-11-15T02:19:07.530Z,1
2022-11-15T02:21:06.238Z,1
2022-11-15T02:23:06.262Z,1
2022-11-15T02:25:06.223Z,1
2022-11-15T02:27:06.852Z,1
2022-11-15T02:29:07.026Z,1
2022-11-15T02:31:17.032Z,1
2022-11-15T02:33:07.001Z,1
2022-11-15T02:35:07.525Z,1
2022-11-15T02:37:06.353Z,1
2022-11-15T02:39:06.331Z,1
2022-11-15T02:41:06.320Z,1
2022-11-15T02:43:08.397Z,1
2022-11-15T02:45:18.102Z,1
2022-11-15T02:47:13.980Z,1
2022-11-15T02:49:06.769Z,1
2022-11-15T02:51:06.118Z,1
2022-11-15T02:53:07.553Z,1
2022-11-15T02:55:07.366Z,1
2022-11-15T02:57:07.149Z,1
2022-11-15T02:59:20.608Z,1
2022-11-15T03:01:06.751Z,1
2022-11-15T03:03:11.506Z,1
2022-11-15T03:05:13.831Z,1
2022-11-15T03:07:13.910Z,1
2022-11-15T03:09:20.968Z,1
2022-11-15T03:11:06.401Z,1
2022-11-15T03:13:06.767Z,1
2022-11-15T03:15:06.910Z,1
2022-11-15T03:17:07.878Z,1
2022-11-15T03:19:06.289Z,1
2022-11-15T03:21:13.656Z,1
2022-11-15T03:23:07.176Z,1
2022-11-15T03:25:06.771Z,1
2022-11-15T03:27:13.587Z,1
2022-11-15T03:29:13.896Z,1
2022-11-15T03:31:06.805Z,1
2022-11-15T03:33:07.428Z,1
2022-11-15T03:35:06.361Z,1
2022-11-15T03:37:07.005Z,1
2022-11-15T03:39:06.844Z,1
2022-11-15T03:41:06.514Z,1
2022-11-15T03:43:06.382Z,1
2022-11-15T03:45:12.830Z,1
2022-11-15T03:47:06.206Z,1
2022-11-15T03:49:14.196Z,1
2022-11-15T03:51:07.706Z,1
2022-11-15T03:53:13.364Z,1
2022-11-15T03:55:13.971Z,1
2022-11-15T03:57:06.194Z,1
2022-11-15T03:59:13.806Z,1
2022-11-15T04:01:06.500Z,1
2022-11-15T04:03:14.149Z,1
2022-11-15T04:05:06.658Z,1
2022-11-15T04:07:12.911Z,1
2022-11-15T04:09:12.792Z,1
2022-11-15T04:11:06.567Z,1
2022-11-15T04:13:14.163Z,1
2022-11-15T04:15:06.731Z,1
2022-11-15T04:17:06.369Z,1
2022-11-15T04:19:14.059Z,1
2022-11-15T04:21:13.468Z,1
2022-11-15T04:23:13.815Z,1
2022-11-15T04:25:06.207Z,1
2022-11-15T04:27:06.470Z,1
2022-11-15T04:29:06.521Z,1
2022-11-15T04:31:16.518Z,1
2022-11-15T04:33:06.226Z,1
2022-11-15T04:35:06.894Z,1
2022-11-15T04:39:06.908Z,1
2022-11-15T04:41:13.912Z,1
2022-11-15T04:43:06.818Z,1
2022-11-15T04:47:14.016Z,1
2022-11-15T04:49:10.376Z,1
2022-11-15T04:51:06.089Z,1
2022-11-15T04:53:06.296Z,1
2022-11-15T04:55:08.234Z,1
2022-11-15T04:57:12.819Z,1
2022-11-15T04:59:06.138Z,1
2022-11-15T05:01:06.879Z,1
2022-11-15T05:03:12.984Z,1
2022-11-15T05:07:07.477Z,1
2022-11-15T05:11:06.602Z,1
2022-11-15T05:13:06.948Z,1
2022-11-15T05:15:06.393Z,1
2022-11-15T05:17:06.521Z,1
2022-11-15T05:19:13.664Z,1
2022-11-15T05:21:06.266Z,1
2022-11-15T05:23:13.588Z,1
2022-11-15T05:25:06.173Z,1
2022-11-15T05:27:06.245Z,0
2022-11-15T05:29:07.528Z,0
2022-11-15T05:31:14.034Z,0
2022-11-15T05:33:06.447Z,0
2022-11-15T05:35:06.425Z,0.1
2022-11-15T05:37:13.845Z,0.2
2022-11-15T05:39:08.986Z,0.2
2022-11-15T05:41:14.112Z,0.3
2022-11-15T05:43:07.113Z,0.4
2022-11-15T05:45:13.803Z,0.5
2022-11-15T05:47:06.889Z,0.8
2022-11-15T05:49:06.101Z,1.2
2022-11-15T05:51:06.332Z,1.6
2022-11-15T05:53:06.505Z,2.2
2022-11-15T05:55:14.008Z,3.3
2022-11-15T05:57:06.147Z,5
2022-11-15T05:59:07.153Z,7
2022-11-15T06:01:16.923Z,11
2022-11-15T06:03:06.225Z,15.6
2022-11-15T06:05:06.974Z,22.2
2022-11-15T06:07:06.493Z,30
2022-11-15T06:09:14.120Z,42.5
2022-11-15T06:11:07.434Z,54.6
2022-11-15T06:13:17.173Z,73.7
2022-11-15T06:15:06.724Z,90
2022-11-15T06:17:10.126Z,115.6
2022-11-15T06:19:06.378Z,141.2
2022-11-15T06:21:17.500Z,172.4
2022-11-15T06:23:06.463Z,210.6
2022-11-15T06:25:06.856Z,244.7
2022-11-15T06:27:13.845Z,284.3
2022-11-15T06:29:10.708Z,330.3
2022-11-15T06:31:13.811Z,383.8
2022-11-15T06:33:06.908Z,445.9
2022-11-15T06:35:13.681Z,492.7
2022-11-15T06:37:12.957Z,544.6
2022-11-15T06:39:13.703Z,601.8
2022-11-15T06:41:06.808Z,665.1
2022-11-15T06:43:06.495Z,735.1
2022-11-15T06:45:14.336Z,772.8
2022-11-15T06:47:06.363Z,854.1
2022-11-15T06:49:16.382Z,897.8
2022-11-15T06:51:06.453Z,992.3
2022-11-15T06:55:06.360Z,1152.9
2022-11-15T06:57:06.826Z,1212
2022-11-15T06:59:06.408Z,1274.1
2022-11-15T07:01:06.534Z,1339.4
2022-11-15T07:03:06.990Z,1408.1
2022-11-15T07:05:12.757Z,1480.3
2022-11-15T07:07:14.966Z,1556.2
2022-11-15T07:09:06.744Z,1556.2
2022-11-15T07:11:06.154Z,1636
2022-11-15T07:13:06.678Z,1808
2022-11-15T07:15:06.292Z,1900.7
2022-11-15T07:17:14.136Z,1900.7
2022-11-15T07:19:13.912Z,2100.6
2022-11-15T07:21:06.192Z,2100.6
2022-11-15T07:23:06.719Z,2100.6
2022-11-15T07:25:06.903Z,2208.3
2022-11-15T07:27:06.945Z,2208.3
2022-11-15T07:29:06.284Z,2321.6
2022-11-15T07:31:13.662Z,2321.6
2022-11-15T07:33:06.276Z,2440.6
2022-11-15T07:35:07.685Z,2440.6
2022-11-15T07:37:06.949Z,2440.6
2022-11-15T07:39:06.265Z,2565.7
2022-11-15T07:41:13.529Z,2565.7
2022-11-15T07:43:06.306Z,2697.3
2022-11-15T07:45:06.237Z,2697.3
2022-11-15T07:47:07.013Z,2835.6
2022-11-15T07:49:06.231Z,2835.6
2022-11-15T07:51:14.557Z,2981
2022-11-15T07:53:10.886Z,2981
2022-11-15T07:55:06.246Z,3133.8
2022-11-15T07:57:07.664Z,3294.5
2022-11-15T07:59:06.550Z,20952.2
2022-11-15T08:03:06.280Z,36315.5
2022-11-15T08:05:06.945Z,38177.4
2022-11-15T08:07:06.246Z,38177.4
2022-11-15T08:09:07.795Z,40134.8
2022-11-15T08:13:06.191Z,40134.8
2022-11-15T08:15:07.234Z,42192.6
2022-11-15T08:17:06.542Z,42192.6
2022-11-15T08:19:06.245Z,42192.6
2022-11-15T08:21:18.112Z,44355.9
2022-11-15T08:23:06.196Z,44355.9
2022-11-15T08:25:20.615Z,44355.9
2022-11-15T08:27:06.769Z,46630
2022-11-15T08:29:06.817Z,46630
2022-11-15T08:31:06.984Z,46630
2022-11-15T08:33:14.329Z,46630
2022-11-15T08:35:07.044Z,49020.8
2022-11-15T08:37:06.719Z,49020.8
2022-11-15T08:39:06.268Z,49020.8
2022-11-15T08:41:07.035Z,49020.8
2022-11-15T08:43:06.249Z,51534.2
2022-11-15T08:45:06.428Z,51534.2
2022-11-15T08:47:14.178Z,51534.2
2022-11-15T08:49:13.841Z,51534.2
2022-11-15T08:51:06.565Z,54176.4
2022-11-15T08:55:06.149Z,54176.4
2022-11-15T08:57:06.431Z,54176.4
2022-11-15T08:59:07.083Z,54176.4
2022-11-15T09:01:06.308Z,56954
2022-11-15T09:03:06.994Z,54176.4
2022-11-15T09:05:16.828Z,56954
2022-11-15T09:07:06.374Z,56954
2022-11-15T09:09:07.187Z,56954
2022-11-15T09:11:17.338Z,59874.1
2022-11-15T09:13:06.238Z,59874.1
2022-11-15T09:15:06.665Z,56954
2022-11-15T09:19:17.224Z,59874.1
2022-11-15T09:21:16.913Z,56954
2022-11-15T09:23:06.470Z,54176.4
2022-11-15T09:25:16.440Z,56954
2022-11-15T09:27:12.861Z,56954
2022-11-15T09:29:06.660Z,56954
2022-11-15T09:31:06.430Z,54176.4
2022-11-15T09:33:13.700Z,56954
2022-11-15T09:35:16.974Z,59874.1
2022-11-15T09:37:06.956Z,59874.1
2022-11-15T09:39:06.851Z,59874.1
2022-11-15T09:43:06.866Z,59874.1
2022-11-15T09:45:06.887Z,62944
2022-11-15T09:47:06.928Z,62944
2022-11-15T09:49:14.444Z,62944
2022-11-15T09:51:07.429Z,66171.2
2022-11-15T09:53:07.028Z,66171.2
2022-11-15T09:55:06.874Z,66171.2
2022-11-15T09:57:07.638Z,66171.2
2022-11-15T09:59:14.456Z,66171.2
2022-11-15T10:01:06.918Z,69563.8
2022-11-15T10:03:06.912Z,69563.8
2022-11-15T10:05:15.326Z,69563.8
2022-11-15T10:07:06.360Z,73130.4
2022-11-15T10:09:07.150Z,73130.4
2022-11-15T10:11:35.187Z,73130.4
2022-11-15T10:13:13.964Z,76879.9
2022-11-15T10:15:06.159Z,76879.9
2022-11-15T10:17:14.653Z,76879.9
2022-11-15T10:19:06.234Z,76879.9
2022-11-15T10:21:06.889Z,76879.9
2022-11-15T10:23:06.807Z,76879.9
2022-11-15T10:25:07.249Z,76879.9
2022-11-15T10:27:07.103Z,76879.9
2022-11-15T10:29:07.080Z,76879.9
2022-11-15T10:31:07.101Z,76879.9
2022-11-15T10:35:07.017Z,76879.9
2022-11-15T10:37:06.819Z,76879.9
2022-11-15T10:39:06.930Z,76879.9
2022-11-15T10:41:06.231Z,76879.9
2022-11-15T10:43:06.704Z,80821.6
2022-11-15T10:45:16.866Z,80821.6
2022-11-15T10:47:07.062Z,80821.6
2022-11-15T10:49:07.180Z,80821.6
2022-11-15T10:51:06.165Z,80821.6
2022-11-15T10:53:06.228Z,80821.6
2022-11-15T10:55:06.195Z,80821.6
2022-11-15T10:57:07.166Z,80821.6
2022-11-15T10:59:06.428Z,80821.6
2022-11-15T11:01:06.270Z,80821.6
2022-11-15T11:03:06.885Z,80821.6
2022-11-15T11:05:06.767Z,80821.6
2022-11-15T11:07:13.889Z,80821.6
2022-11-15T11:09:06.252Z,80821.6
2022-11-15T11:11:06.578Z,80821.6
2022-11-15T11:13:07.379Z,80821.6
2022-11-15T11:15:13.957Z,80821.6
2022-11-15T11:17:06.264Z,76879.9
2022-11-15T11:19:13.850Z,73130.4
2022-11-15T11:21:13.112Z,76879.9
2022-11-15T11:23:06.745Z,76879.9
2022-11-15T11:25:06.297Z,76879.9
2022-11-15T11:27:06.939Z,76879.9
2022-11-15T11:29:06.161Z,73130.4
2022-11-15T11:31:06.898Z,73130.4
2022-11-15T11:33:06.894Z,73130.4
2022-11-15T11:35:13.396Z,69563.8
2022-11-15T11:37:06.479Z,73130.4
2022-11-15T11:39:13.780Z,73130.4
2022-11-15T11:41:06.822Z,73130.4
2022-11-15T11:43:06.894Z,73130.4
2022-11-15T11:45:14.145Z,69563.8
2022-11-15T11:47:06.598Z,69563.8
2022-11-15T11:49:06.836Z,69563.8
2022-11-15T11:51:06.206Z,66171.2
2022-11-15T11:53:06.764Z,66171.2
2022-11-15T11:55:06.947Z,66171.2
2022-11-15T11:57:06.518Z,69563.8
2022-11-15T11:59:06.595Z,66171.2
2022-11-15T12:01:11.482Z,66171.2
2022-11-15T12:03:14.335Z,66171.2
2022-11-15T12:05:14.164Z,73130.4
2022-11-15T12:07:06.506Z,73130.4
2022-11-15T12:09:06.765Z,73130.4
2022-11-15T12:13:06.991Z,73130.4
2022-11-15T12:17:16.815Z,69563.8
2022-11-15T12:19:06.415Z,69563.8
2022-11-15T12:21:06.253Z,69563.8
2022-11-15T12:23:06.594Z,69563.8
2022-11-15T12:25:17.246Z,66171.2
2022-11-15T12:27:07.653Z,66171.2
2022-11-15T12:29:08.225Z,66171.2
2022-11-15T12:31:06.852Z,62944
2022-11-15T12:35:06.437Z,66171.2
2022-11-15T12:37:06.630Z,66171.2
2022-11-15T12:39:06.966Z,66171.2
2022-11-15T12:41:06.636Z,69563.8
2022-11-15T12:43:06.577Z,66171.2
2022-11-15T12:45:06.736Z,66171.2
2022-11-15T12:47:10.490Z,66171.2
2022-11-15T12:49:06.854Z,66171.2
2022-11-15T12:51:06.142Z,66171.2
2022-11-15T12:53:07.161Z,62944
2022-11-15T12:55:08.889Z,66171.2
2022-11-15T12:57:12.935Z,62944
2022-11-15T12:59:09.949Z,62944
2022-11-15T13:01:07.001Z,56954
2022-11-15T13:03:10.342Z,56954
2022-11-15T13:05:06.265Z,49020.8
2022-11-15T13:07:06.207Z,46630
2022-11-15T13:09:06.699Z,40134.8
2022-11-15T13:11:06.334Z,31257
2022-11-15T13:13:06.800Z,40134.8
2022-11-15T13:15:10.479Z,40134.8
2022-11-15T13:17:09.869Z,54176.4
2022-11-15T13:21:06.920Z,54176.4
2022-11-15T13:23:06.267Z,51534.2
2022-11-15T13:25:06.250Z,51534.2
2022-11-15T13:29:10.305Z,54176.4
2022-11-15T13:31:13.574Z,49020.8
2022-11-15T13:33:06.801Z,49020.8
2022-11-15T13:35:10.205Z,46630
2022-11-15T13:37:09.409Z,46630
2022-11-15T13:39:06.771Z,46630
2022-11-15T13:41:06.546Z,44355.9
2022-11-15T13:43:13.300Z,42192.6
2022-11-15T13:45:06.149Z,31257
2022-11-15T13:47:06.892Z,36315.5
2022-11-15T13:49:06.545Z,32859.6
2022-11-15T13:51:06.572Z,29732.6
2022-11-15T13:53:07.211Z,29732.6
2022-11-15T13:55:09.491Z,14044.7
2022-11-15T13:57:06.970Z,6310.7
2022-11-15T13:59:06.305Z,10404.6
2022-11-15T14:01:07.090Z,19930.4
2022-11-15T14:03:09.140Z,6310.7
2022-11-15T14:05:09.561Z,5431.7
2022-11-15T14:07:07.109Z,10404.6
2022-11-15T14:09:06.896Z,7332
2022-11-15T14:11:10.306Z,4230.2
2022-11-15T14:13:06.225Z,3827.6
2022-11-15T14:15:06.245Z,3463.4
2022-11-15T14:19:06.244Z,3133.8
2022-11-15T14:21:10.267Z,2981
2022-11-15T14:23:06.320Z,2835.6
2022-11-15T14:25:06.386Z,2697.3
2022-11-15T14:27:06.232Z,2697.3
2022-11-15T14:29:06.678Z,2697.3
2022-11-15T14:31:06.368Z,2697.3
2022-11-15T14:33:06.168Z,2565.7
2022-11-15T14:35:06.459Z,2565.7
2022-11-15T14:37:06.182Z,2440.6
2022-11-15T14:39:06.208Z,2321.6
2022-11-15T14:41:06.433Z,2208.3
2022-11-15T14:43:16.305Z,1998.2
2022-11-15T14:45:10.359Z,1808
2022-11-15T14:47:06.343Z,1636
2022-11-15T14:49:09.876Z,1480.3
2022-11-15T14:51:10.028Z,1339.4
2022-11-15T14:53:06.755Z,1212
2022-11-15T14:55:06.478Z,1096.6
2022-11-15T14:57:10.373Z,992.3
2022-11-15T14:59:06.303Z,897.8
2022-11-15T15:01:10.352Z,735.1
2022-11-15T15:03:06.942Z,665.1
2022-11-15T15:05:10.477Z,601.8
2022-11-15T15:07:10.063Z,544.6
2022-11-15T15:09:09.985Z,492.7
2022-11-15T15:11:10.187Z,424.1
2022-11-15T15:13:06.928Z,347.2
2022-11-15T15:15:06.390Z,314.2
2022-11-15T15:17:07.257Z,270.4
2022-11-15T15:19:06.303Z,244.7
2022-11-15T15:21:06.307Z,232.8
2022-11-15T15:23:06.290Z,210.6
2022-11-15T15:25:06.781Z,190.6
2022-11-15T15:27:06.907Z,164
2022-11-15T15:29:10.409Z,148.4
2022-11-15T15:31:06.898Z,134.3
2022-11-15T15:33:10.218Z,115.6
2022-11-15T15:37:10.377Z,85.6
2022-11-15T15:39:06.734Z,70.1
2022-11-15T15:41:10.306Z,57.4
2022-11-15T15:43:10.263Z,47
2022-11-15T15:45:09.944Z,38.5
2022-11-15T15:47:07.183Z,30
2022-11-15T15:49:07.833Z,22.2
2022-11-15T15:51:13.135Z,17.3
2022-11-15T15:53:06.435Z,12.2
2022-11-15T15:55:06.326Z,8.6
2022-11-15T15:57:07.187Z,5.8
2022-11-15T15:59:09.589Z,3.7
2022-11-15T16:01:13.680Z,2.3
2022-11-15T16:03:07.052Z,1.6
2022-11-15T16:05:06.323Z,1.1
2022-11-15T16:07:06.302Z,0.7
2022-11-15T16:09:15.509Z,0.5
2022-11-15T16:11:13.644Z,0.4
2022-11-15T16:13:09.787Z,0.3
2022-11-15T16:15:10.461Z,0.2
2022-11-15T16:17:06.716Z,0.2
2022-11-15T16:19:06.269Z,0.1
2022-11-15T16:21:09.902Z,0
2022-11-15T16:23:08.617Z,0
2022-11-15T16:25:06.724Z,0
2022-11-15T16:27:06.992Z,0
2022-11-15T16:29:06.309Z,0
2022-11-15T16:31:06.896Z,0
2022-11-15T16:33:06.293Z,1
2022-11-15T16:35:06.335Z,1
2022-11-15T16:37:06.280Z,1
2022-11-15T16:39:06.953Z,1
2022-11-15T16:41:06.433Z,0
2022-11-15T16:43:11.558Z,1
2022-11-15T16:45:10.403Z,1
2022-11-15T16:47:13.207Z,1
2022-11-15T16:49:06.597Z,1
2022-11-15T16:51:13.610Z,1
2022-11-15T16:53:08.132Z,1
2022-11-15T16:55:06.691Z,1
2022-11-15T16:57:06.707Z,1
2022-11-15T16:59:06.590Z,1
2022-11-15T17:01:11.519Z,1
2022-11-15T17:03:06.281Z,1
2022-11-15T17:05:11.898Z,1
2022-11-15T17:07:06.904Z,1
2022-11-15T17:09:06.867Z,1
2022-11-15T17:11:06.798Z,1
2022-11-15T17:13:06.252Z,1
2022-11-15T17:15:06.193Z,1
2022-11-15T17:17:07.125Z,1
2022-11-15T17:19:06.956Z,1
2022-11-15T17:21:09.874Z,1
2022-11-15T17:23:06.475Z,1
2022-11-15T17:25:13.362Z,1
2022-11-15T17:27:07.035Z,1
2022-11-15T17:29:07.021Z,1
2022-11-15T17:31:10.364Z,1
2022-11-15T17:33:06.450Z,1
2022-11-15T17:35:15.006Z,1
2022-11-15T17:37:06.741Z,1
2022-11-15T17:39:06.318Z,1
2022-11-15T17:41:06.370Z,1
2022-11-15T17:43:06.441Z,1
2022-11-15T17:45:10.047Z,1
2022-11-15T17:47:07.327Z,1
2022-11-15T17:49:06.274Z,1
2022-11-15T17:51:06.427Z,1
2022-11-15T17:53:06.617Z,1
2022-11-15T17:55:06.575Z,1
2022-11-15T17:57:06.706Z,1
2022-11-15T17:59:10.814Z,1
2022-11-15T18:01:06.535Z,1
2022-11-15T18:03:09.855Z,1
2022-11-15T18:05:06.421Z,1
2022-11-15T18:07:10.065Z,1
2022-11-15T18:09:06.210Z,1
2022-11-15T18:11:06.455Z,1
2022-11-15T18:13:06.555Z,1
2022-11-15T18:15:06.327Z,1
2022-11-15T18:17:09.874Z,1
2022-11-15T18:19:09.462Z,1
2022-11-15T18:21:09.723Z,1
2022-11-15T18:23:09.505Z,1
2022-11-15T18:25:06.289Z,1
2022-11-15T18:27:13.043Z,1
2022-11-15T18:29:06.440Z,1
2022-11-15T18:31:06.343Z,1
2022-11-15T18:33:06.459Z,1
2022-11-15T18:35:09.495Z,1
2022-11-15T18:37:06.284Z,1
2022-11-15T18:39:06.548Z,1
2022-11-15T18:41:12.654Z,1
2022-11-15T18:43:06.490Z,1
2022-11-15T18:45:06.299Z,1
2022-11-15T18:47:06.496Z,1
2022-11-15T18:49:06.434Z,1
2022-11-15T18:51:06.530Z,1
2022-11-15T18:53:06.566Z,1
2022-11-15T18:55:06.391Z,1
2022-11-15T18:57:09.826Z,1
2022-11-15T18:59:13.076Z,1
2022-11-15T19:01:06.263Z,1
2022-11-15T19:03:06.329Z,1
2022-11-15T19:05:06.495Z,1
2022-11-15T19:07:06.445Z,1
2022-11-15T19:09:06.254Z,1
2022-11-15T19:11:07.111Z,1
2022-11-15T19:13:06.288Z,1
2022-11-15T19:15:10.350Z,1
2022-11-15T19:17:09.940Z,1
2022-11-15T19:19:10.034Z,1
2022-11-15T19:21:06.494Z,1
2022-11-15T19:23:06.317Z,1
2022-11-15T19:25:09.639Z,1
2022-11-15T19:27:06.246Z,1
2022-11-15T19:29:06.754Z,1
2022-11-15T19:31:06.315Z,1
2022-11-15T19:33:06.245Z,1
2022-11-15T19:37:06.315Z,1
2022-11-15T19:39:10.051Z,1
2022-11-15T19:41:06.357Z,1
2022-11-15T19:43:06.362Z,1
2022-11-15T19:45:06.384Z,1
2022-11-15T19:47:09.568Z,1
2022-11-15T19:49:06.301Z,1
2022-11-15T19:51:09.899Z,1
2022-11-15T19:53:06.576Z,1
2022-11-15T19:55:06.552Z,1
2022-11-15T19:57:06.284Z,1
2022-11-15T19:59:06.788Z,1
2022-11-15T20:01:09.477Z,1
2022-11-15T20:03:06.299Z,1
2022-11-15T20:05:06.441Z,1
2022-11-15T20:07:09.782Z,1
2022-11-15T20:09:06.411Z,1
2022-11-15T20:11:06.350Z,1
2022-11-15T20:13:09.904Z,1
2022-11-15T20:15:06.307Z,1
2022-11-15T20:17:06.481Z,1
2022-11-15T20:19:06.397Z,1
2022-11-15T20:21:06.454Z,1
2022-11-15T20:23:06.553Z,1
2022-11-15T20:25:06.241Z,1
2022-11-15T20:27:09.786Z,1
2022-11-15T20:29:06.323Z,1
2022-11-15T20:33:09.484Z,1
2022-11-15T20:35:06.338Z,1
2022-11-15T20:37:09.889Z,1
2022-11-15T20:39:12.973Z,1
2022-11-15T20:41:06.273Z,1
2022-11-15T20:43:13.005Z,1
2022-11-15T20:45:06.465Z,1
2022-11-15T20:47:06.437Z,1
2022-11-15T20:49:06.539Z,1
2022-11-15T20:51:06.544Z,1
2022-11-15T20:53:06.259Z,1
2022-11-15T20:55:06.456Z,1
2022-11-15T20:57:09.865Z,1
2022-11-15T20:59:06.286Z,1
2022-11-15T21:01:06.852Z,1
2022-11-15T21:03:06.427Z,1
2022-11-15T21:05:06.421Z,1
2022-11-15T21:07:06.530Z,1
2022-11-15T21:09:06.608Z,1
2022-11-15T21:11:06.411Z,1
2022-11-15T21:13:06.444Z,1
2022-11-15T21:15:06.429Z,1
2022-11-15T21:17:06.607Z,1
2022-11-15T21:19:13.103Z,1
2022-11-15T21:21:06.346Z,1
2022-11-15T21:23:06.743Z,1
2022-11-15T21:25:09.897Z,1
2022-11-15T21:27:06.341Z,1
2022-11-15T21:31:09.437Z,1
2022-11-15T21:33:09.814Z,1
2022-11-15T21:35:06.271Z,1
2022-11-15T21:37:06.395Z,1
2022-11-15T21:39:06.578Z,1
2022-11-15T21:41:06.645Z,1
2022-11-15T21:43:09.994Z,1
2022-11-15T21:45:06.485Z,1
2022-11-15T21:47:06.576Z,1
2022-11-15T21:49:09.888Z,1
2022-11-15T21:51:06.725Z,1
2022-11-15T21:53:06.378Z,1
2022-11-15T21:55:06.222Z,1
2022-11-15T21:57:13.016Z,1
2022-11-15T21:59:09.833Z,1
2022-11-15T22:01:09.538Z,1
2022-11-15T22:03:12.612Z,1
2022-11-15T22:05:06.485Z,1
2022-11-15T22:07:09.752Z,1
2022-11-15T22:09:06.244Z,1
2022-11-15T22:11:09.499Z,1
2022-11-15T22:13:13.027Z,1
2022-11-15T22:15:06.239Z,1
2022-11-15T22:17:06.573Z,1
2022-11-15T22:19:06.510Z,1
2022-11-15T22:21:06.629Z,1
2022-11-15T22:23:06.756Z,1
2022-11-15T22:25:06.740Z,1
2022-11-15T22:27:06.217Z,1
2022-11-15T22:29:12.846Z,1
2022-11-15T22:31:06.390Z,1
2022-11-15T22:33:06.521Z,1
2022-11-15T22:35:06.451Z,1
2022-11-15T22:37:19.528Z,1
2022-11-15T22:39:06.404Z,1
2022-11-15T22:41:06.719Z,1
2022-11-15T22:43:09.887Z,1
2022-11-15T22:45:06.348Z,1
2022-11-15T22:47:09.586Z,1
2022-11-15T22:49:06.647Z,1
2022-11-15T22:53:06.677Z,1
2022-11-15T22:55:06.594Z,1
2022-11-15T22:57:06.778Z,1
2022-11-15T22:59:06.859Z,1
2022-11-15T23:01:06.279Z,1
2022-11-15T23:03:09.783Z,1
2022-11-15T23:05:09.879Z,1
2022-11-15T23:07:06.562Z,1
2022-11-15T23:09:06.682Z,1
2022-11-15T23:11:06.389Z,1
2022-11-15T23:13:06.375Z,1
2022-11-15T23:15:06.592Z,1
2022-11-15T23:17:06.460Z,1
2022-11-15T23:19:06.778Z,1
2022-11-15T23:21:06.553Z,1
2022-11-15T23:23:06.678Z,1
2022-11-15T23:25:09.954Z,1
2022-11-15T23:27:06.378Z,1
2022-11-15T23:29:09.930Z,1
2022-11-15T23:31:06.400Z,1
2022-11-15T23:33:06.348Z,1
2022-11-15T23:35:06.786Z,1
2022-11-15T23:37:12.802Z,1
2022-11-15T23:39:06.624Z,1
2022-11-15T23:41:09.758Z,1
2022-11-15T23:43:06.376Z,1
2022-11-15T23:47:06.563Z,1
2022-11-15T23:49:06.381Z,1
2022-11-15T23:51:06.390Z,1
2022-11-15T23:53:06.398Z,1
2022-11-15T23:55:09.489Z,1
2022-11-15T23:57:06.347Z,1
2022-11-15T23:59:06.444Z,1
